PWSweather.com
Personal Weather Stations
Station Observations
J24K28P63
Vysocina, PocatkyCZ 39464

VysocinaPocatkyCZ 39464

Lat: 49.2594238, Lon: 15.2331769

Elevation: 2011

Station Type: Vantage Pro2+

http://meteo-jirkalina.com

High Low Average
Temperature 61.6°F16.4°F 47.6°F8.7°F 53.1°F11.7°F
Dew Point 55.0°F12.8°F 45.4°F7.4°F 50.9°F10.5°F
Winds 6.1 mph W9.8 mph W Calm Calm 0.6 mph 1.0 mph
Wind Gusts 12.0 mph19.3 mph -- 1.6 mph2.6 mph
Humidity 100% 58% 93%
Pressure 30.06 in1017.90 in 29.94 in1013.90 in -
Precipitation 0.03 in0.80 in - -
Hour Temp Dew Point Humidity Winds Wind Gusts Pressure Precip Precip Rate Daily Precip Total
12:00 AM 50.8°F10.4°C 50.8°F10.4°C 100% Calm Calm -- 30.02 in1016.6 mb 0.00 in0.0 mm 0.00 in0.0 mm 0.00 in0.0 mm
12:10 AM 50.9°F10.5°C 50.9°F10.5°C 100% 1.0 mph E1.6 kmh E 3.0 mph4.8 kmh 30.02 in1016.6 mb 0.00 in0.0 mm 0.00 in0.0 mm 0.00 in0.0 mm
12:20 AM 50.9°F10.5°C 50.9°F10.5°C 100% 2.0 mph E3.2 kmh E 3.0 mph4.8 kmh 30.03 in1016.9 mb 0.00 in0.0 mm 0.00 in0.0 mm 0.00 in0.0 mm
12:30 AM 51.0°F10.6°C 51.0°F10.6°C 100% Calm Calm -- 30.03 in1016.9 mb 0.00 in0.0 mm 0.00 in0.0 mm 0.00 in0.0 mm
12:40 AM 51.0°F10.6°C 51.0°F10.6°C 100% Calm Calm -- 30.04 in1017.3 mb 0.00 in0.0 mm 0.00 in0.0 mm 0.00 in0.0 mm
12:50 AM 51.0°F10.6°C 51.0°F10.6°C 100% Calm Calm -- 30.03 in1016.9 mb 0.00 in0.0 mm 0.00 in0.0 mm 0.00 in0.0 mm
01:00 AM 51.1°F10.6°C 51.1°F10.6°C 100% Calm Calm -- 30.03 in1016.9 mb 0.00 in0.0 mm 0.00 in0.0 mm 0.00 in0.0 mm
01:10 AM 51.0°F10.6°C 51.0°F10.6°C 100% Calm Calm -- 30.03 in1016.9 mb 0.00 in0.0 mm 0.00 in0.0 mm 0.00 in0.0 mm
01:20 AM 51.0°F10.6°C 51.0°F10.6°C 100% Calm Calm 1.0 mph1.6 kmh 30.03 in1016.9 mb 0.00 in0.0 mm 0.00 in0.0 mm 0.00 in0.0 mm
01:30 AM 50.9°F10.5°C 50.9°F10.5°C 100% Calm Calm -- 30.02 in1016.6 mb 0.00 in0.0 mm 0.00 in0.0 mm 0.00 in0.0 mm
01:40 AM 50.9°F10.5°C 50.9°F10.5°C 100% Calm Calm -- 30.03 in1016.9 mb 0.00 in0.0 mm 0.00 in0.0 mm 0.00 in0.0 mm
01:50 AM 50.9°F10.5°C 50.9°F10.5°C 100% Calm Calm -- 30.03 in1016.9 mb 0.00 in0.0 mm 0.00 in0.0 mm 0.00 in0.0 mm
02:00 AM 50.9°F10.5°C 50.9°F10.5°C 100% 1.0 mph E1.6 kmh E 2.0 mph3.2 kmh 30.02 in1016.6 mb 0.00 in0.0 mm 0.00 in0.0 mm 0.00 in0.0 mm
02:10 AM 50.7°F10.4°C 50.7°F10.4°C 100% Calm Calm 1.0 mph1.6 kmh 30.03 in1016.9 mb 0.00 in0.0 mm 0.00 in0.0 mm 0.00 in0.0 mm
02:20 AM 50.6°F10.3°C 50.6°F10.3°C 100% Calm Calm -- 30.03 in1016.9 mb 0.00 in0.0 mm 0.00 in0.0 mm 0.00 in0.0 mm
02:30 AM 50.5°F10.3°C 50.5°F10.3°C 100% Calm Calm -- 30.02 in1016.6 mb 0.00 in0.0 mm 0.00 in0.0 mm 0.00 in0.0 mm
02:40 AM 50.5°F10.3°C 50.5°F10.3°C 100% Calm Calm -- 30.03 in1016.9 mb 0.00 in0.0 mm 0.00 in0.0 mm 0.00 in0.0 mm
02:50 AM 50.5°F10.3°C 50.5°F10.3°C 100% Calm Calm -- 30.03 in1016.9 mb 0.00 in0.0 mm 0.00 in0.0 mm 0.00 in0.0 mm
03:00 AM 50.5°F10.3°C 50.5°F10.3°C 100% Calm Calm -- 30.03 in1016.9 mb 0.00 in0.0 mm 0.00 in0.0 mm 0.00 in0.0 mm
03:10 AM 50.6°F10.3°C 50.6°F10.3°C 100% Calm Calm -- 30.03 in1016.9 mb 0.00 in0.0 mm 0.00 in0.0 mm 0.00 in0.0 mm
03:20 AM 50.6°F10.3°C 50.6°F10.3°C 100% Calm Calm -- 30.03 in1016.9 mb 0.00 in0.0 mm 0.00 in0.0 mm 0.00 in0.0 mm
03:30 AM 50.7°F10.4°C 50.7°F10.4°C 100% Calm Calm -- 30.03 in1016.9 mb 0.00 in0.0 mm 0.00 in0.0 mm 0.00 in0.0 mm
03:40 AM 50.7°F10.4°C 50.7°F10.4°C 100% Calm Calm -- 30.03 in1016.9 mb 0.00 in0.0 mm 0.00 in0.0 mm 0.00 in0.0 mm
03:50 AM 50.7°F10.4°C 50.7°F10.4°C 100% Calm Calm -- 30.03 in1016.9 mb 0.00 in0.0 mm 0.00 in0.0 mm 0.00 in0.0 mm
04:00 AM 50.7°F10.4°C 50.7°F10.4°C 100% Calm Calm -- 30.03 in1016.9 mb 0.00 in0.0 mm 0.00 in0.0 mm 0.00 in0.0 mm
04:10 AM 50.7°F10.4°C 50.7°F10.4°C 100% Calm Calm -- 30.03 in1016.9 mb 0.00 in0.0 mm 0.00 in0.0 mm 0.00 in0.0 mm
04:20 AM 50.7°F10.4°C 50.7°F10.4°C 100% Calm Calm -- 30.02 in1016.6 mb 0.00 in0.0 mm 0.00 in0.0 mm 0.00 in0.0 mm
04:30 AM 50.8°F10.4°C 50.8°F10.4°C 100% Calm Calm -- 30.02 in1016.6 mb 0.00 in0.0 mm 0.00 in0.0 mm 0.00 in0.0 mm
04:40 AM 50.8°F10.4°C 50.8°F10.4°C 100% Calm Calm 1.0 mph1.6 kmh 30.03 in1016.9 mb 0.00 in0.0 mm 0.00 in0.0 mm 0.00 in0.0 mm
04:50 AM 50.8°F10.4°C 50.8°F10.4°C 100% Calm Calm 2.0 mph3.2 kmh 30.03 in1016.9 mb 0.00 in0.0 mm 0.00 in0.0 mm 0.00 in0.0 mm
05:00 AM 50.8°F10.4°C 50.8°F10.4°C 100% Calm Calm -- 30.03 in1016.9 mb 0.00 in0.0 mm 0.00 in0.0 mm 0.00 in0.0 mm
05:10 AM 50.8°F10.4°C 50.8°F10.4°C 100% Calm Calm -- 30.03 in1016.9 mb 0.00 in0.0 mm 0.00 in0.0 mm 0.00 in0.0 mm
05:20 AM 50.7°F10.4°C 50.7°F10.4°C 100% Calm Calm -- 30.03 in1016.9 mb 0.00 in0.0 mm 0.00 in0.0 mm 0.00 in0.0 mm
05:30 AM 50.6°F10.3°C 50.6°F10.3°C 100% Calm Calm 1.0 mph1.6 kmh 30.03 in1016.9 mb 0.00 in0.0 mm 0.00 in0.0 mm 0.00 in0.0 mm
05:40 AM 50.5°F10.3°C 50.5°F10.3°C 100% Calm Calm -- 30.02 in1016.6 mb 0.00 in0.0 mm 0.00 in0.0 mm 0.00 in0.0 mm
05:50 AM 50.5°F10.3°C 50.5°F10.3°C 100% Calm Calm -- 30.03 in1016.9 mb 0.00 in0.0 mm 0.00 in0.0 mm 0.00 in0.0 mm
06:00 AM 50.3°F10.2°C 50.3°F10.2°C 100% Calm Calm -- 30.03 in1016.9 mb 0.00 in0.0 mm 0.00 in0.0 mm 0.00 in0.0 mm
06:10 AM 50.1°F10.1°C 50.1°F10.1°C 100% Calm Calm -- 30.03 in1016.9 mb 0.00 in0.0 mm 0.00 in0.0 mm 0.00 in0.0 mm
06:20 AM 49.9°F9.9°C 49.9°F9.9°C 100% Calm Calm -- 30.03 in1016.9 mb 0.00 in0.0 mm 0.00 in0.0 mm 0.00 in0.0 mm
06:30 AM 49.9°F9.9°C 49.9°F9.9°C 100% Calm Calm -- 30.03 in1016.9 mb 0.00 in0.0 mm 0.00 in0.0 mm 0.00 in0.0 mm
06:40 AM 49.9°F9.9°C 49.9°F9.9°C 100% Calm Calm 1.0 mph1.6 kmh 30.04 in1017.3 mb 0.00 in0.0 mm 0.00 in0.0 mm 0.00 in0.0 mm
06:50 AM 49.8°F9.9°C 49.8°F9.9°C 100% Calm Calm -- 30.03 in1016.9 mb 0.00 in0.0 mm 0.00 in0.0 mm 0.00 in0.0 mm
07:00 AM 49.6°F9.8°C 49.6°F9.8°C 100% Calm Calm -- 30.03 in1016.9 mb 0.00 in0.0 mm 0.00 in0.0 mm 0.00 in0.0 mm
07:10 AM 49.5°F9.7°C 49.5°F9.7°C 100% Calm Calm -- 30.04 in1017.3 mb 0.00 in0.0 mm 0.00 in0.0 mm 0.00 in0.0 mm
07:20 AM 49.3°F9.6°C 49.3°F9.6°C 100% Calm Calm -- 30.03 in1016.9 mb - 0.00 in0.0 mm 0.00 in0.0 mm
07:30 AM 49.2°F9.6°C 49.2°F9.6°C 100% Calm Calm -- 30.03 in1016.9 mb - 0.00 in0.0 mm 0.00 in0.0 mm
07:40 AM 49.2°F9.6°C 49.2°F9.6°C 100% Calm Calm -- 30.03 in1016.9 mb - 0.00 in0.0 mm 0.00 in0.0 mm
07:50 AM 49.4°F9.7°C 49.4°F9.7°C 100% Calm Calm -- 30.03 in1016.9 mb - 0.00 in0.0 mm 0.00 in0.0 mm
08:00 AM 49.6°F9.8°C 49.6°F9.8°C 100% 1.0 mph E1.6 kmh E 2.0 mph3.2 kmh 30.04 in1017.3 mb - 0.00 in0.0 mm 0.00 in0.0 mm
08:10 AM 49.7°F9.8°C 49.7°F9.8°C 100% Calm Calm 1.0 mph1.6 kmh 30.04 in1017.3 mb - 0.00 in0.0 mm 0.00 in0.0 mm
08:20 AM 49.7°F9.8°C 49.7°F9.8°C 100% Calm Calm -- 30.04 in1017.3 mb - 0.00 in0.0 mm 0.00 in0.0 mm
08:30 AM 49.7°F9.8°C 49.7°F9.8°C 100% Calm Calm -- 30.04 in1017.3 mb - 0.00 in0.0 mm 0.00 in0.0 mm
08:40 AM 49.9°F9.9°C 49.9°F9.9°C 100% Calm Calm 1.0 mph1.6 kmh 30.05 in1017.6 mb - 0.00 in0.0 mm 0.00 in0.0 mm
08:50 AM 50.0°F10.0°C 50.0°F10.0°C 100% Calm Calm 2.0 mph3.2 kmh 30.04 in1017.3 mb - 0.00 in0.0 mm 0.00 in0.0 mm
09:00 AM 49.9°F9.9°C 49.9°F9.9°C 100% Calm Calm -- 30.05 in1017.6 mb - 0.00 in0.0 mm 0.00 in0.0 mm
09:10 AM 50.5°F10.3°C 50.5°F10.3°C 100% Calm Calm 1.0 mph1.6 kmh 30.04 in1017.3 mb - 0.00 in0.0 mm 0.00 in0.0 mm
09:20 AM 50.6°F10.3°C 50.6°F10.3°C 100% Calm Calm -- 30.04 in1017.3 mb - 0.00 in0.0 mm 0.00 in0.0 mm
09:30 AM 51.1°F10.6°C 51.1°F10.6°C 100% 1.0 mph E1.6 kmh E 2.0 mph3.2 kmh 30.05 in1017.6 mb - 0.00 in0.0 mm 0.00 in0.0 mm
09:40 AM 51.0°F10.6°C 51.0°F10.6°C 100% Calm Calm -- 30.05 in1017.6 mb - 0.00 in0.0 mm 0.00 in0.0 mm
09:50 AM 51.7°F10.9°C 51.7°F10.9°C 100% Calm Calm -- 30.05 in1017.6 mb - 0.00 in0.0 mm 0.00 in0.0 mm
10:00 AM 52.0°F11.1°C 52.0°F11.1°C 100% Calm Calm -- 30.05 in1017.6 mb - 0.00 in0.0 mm 0.00 in0.0 mm
10:10 AM 52.0°F11.1°C 52.0°F11.1°C 100% Calm Calm -- 30.05 in1017.6 mb - 0.00 in0.0 mm 0.00 in0.0 mm
10:20 AM 52.5°F11.4°C 52.5°F11.4°C 100% 1.0 mph E1.6 kmh E 2.0 mph3.2 kmh 30.05 in1017.6 mb - 0.00 in0.0 mm 0.00 in0.0 mm
10:30 AM 53.1°F11.7°C 53.1°F11.7°C 100% 1.0 mph E1.6 kmh E 2.0 mph3.2 kmh 30.05 in1017.6 mb - 0.00 in0.0 mm 0.00 in0.0 mm
10:40 AM 53.8°F12.1°C 53.8°F12.1°C 100% Calm Calm 1.0 mph1.6 kmh 30.05 in1017.6 mb - 0.00 in0.0 mm 0.00 in0.0 mm
10:50 AM 54.0°F12.2°C 54.0°F12.2°C 100% Calm Calm -- 30.06 in1017.9 mb - 0.00 in0.0 mm 0.00 in0.0 mm
11:00 AM 54.1°F12.3°C 54.1°F12.3°C 100% Calm Calm 1.0 mph1.6 kmh 30.05 in1017.6 mb - 0.00 in0.0 mm 0.00 in0.0 mm
11:10 AM 54.0°F12.2°C 54.0°F12.2°C 100% Calm Calm -- 30.05 in1017.6 mb - 0.00 in0.0 mm 0.00 in0.0 mm
11:20 AM 54.2°F12.3°C 54.2°F12.3°C 100% Calm Calm 1.0 mph1.6 kmh 30.05 in1017.6 mb - 0.00 in0.0 mm 0.00 in0.0 mm
11:30 AM 54.6°F12.6°C 54.6°F12.6°C 100% Calm Calm 1.0 mph1.6 kmh 30.05 in1017.6 mb - 0.00 in0.0 mm 0.00 in0.0 mm
11:40 AM 54.8°F12.7°C 54.6°F12.6°C 99% Calm Calm -- 30.04 in1017.3 mb - 0.00 in0.0 mm 0.00 in0.0 mm
11:50 AM 55.4°F13.0°C 54.3°F12.4°C 96% Calm Calm -- 30.04 in1017.3 mb - 0.00 in0.0 mm 0.00 in0.0 mm
12:00 PM 55.9°F13.3°C 53.6°F12.0°C 92% Calm Calm 1.0 mph1.6 kmh 30.03 in1016.9 mb - 0.00 in0.0 mm 0.00 in0.0 mm
12:10 PM 56.5°F13.6°C 52.9°F11.6°C 88% Calm Calm -- 30.02 in1016.6 mb - 0.00 in0.0 mm 0.00 in0.0 mm
12:20 PM 56.2°F13.4°C 52.4°F11.3°C 87% Calm Calm -- 30.02 in1016.6 mb - 0.00 in0.0 mm 0.00 in0.0 mm
12:30 PM 56.2°F13.4°C 52.1°F11.2°C 86% Calm Calm -- 30.02 in1016.6 mb - 0.00 in0.0 mm 0.00 in0.0 mm
12:40 PM 56.5°F13.6°C 51.7°F10.9°C 84% Calm Calm -- 30.02 in1016.6 mb - 0.00 in0.0 mm 0.00 in0.0 mm
12:50 PM 56.8°F13.8°C 51.7°F10.9°C 83% Calm Calm -- 30.02 in1016.6 mb - 0.00 in0.0 mm 0.00 in0.0 mm
01:00 PM 57.7°F14.3°C 51.2°F10.7°C 79% Calm Calm 2.0 mph3.2 kmh 30.02 in1016.6 mb - 0.00 in0.0 mm 0.00 in0.0 mm
01:10 PM 58.3°F14.6°C 51.4°F10.8°C 78% 1.0 mph E1.6 kmh E 3.0 mph4.8 kmh 30.01 in1016.3 mb - 0.00 in0.0 mm 0.00 in0.0 mm
01:20 PM 58.1°F14.5°C 52.3°F11.3°C 81% 2.0 mph E3.2 kmh E 3.0 mph4.8 kmh 30.01 in1016.3 mb - 0.00 in0.0 mm 0.00 in0.0 mm
01:30 PM 58.7°F14.8°C 52.5°F11.4°C 80% 2.0 mph E3.2 kmh E 3.0 mph4.8 kmh 30.01 in1016.3 mb - 0.00 in0.0 mm 0.00 in0.0 mm
01:40 PM 58.7°F14.8°C 52.6°F11.4°C 80% 1.0 mph E1.6 kmh E 2.0 mph3.2 kmh 30.01 in1016.3 mb - 0.00 in0.0 mm 0.00 in0.0 mm
01:50 PM 59.1°F15.1°C 52.3°F11.3°C 78% 1.0 mph E1.6 kmh E 3.0 mph4.8 kmh 30.01 in1016.3 mb - 0.00 in0.0 mm 0.00 in0.0 mm
02:00 PM 59.2°F15.1°C 52.3°F11.3°C 78% 3.0 mph E4.8 kmh E 6.0 mph9.7 kmh 30.01 in1016.3 mb - 0.00 in0.0 mm 0.00 in0.0 mm
02:10 PM 59.7°F15.4°C 52.5°F11.4°C 77% 3.0 mph E4.8 kmh E 6.0 mph9.7 kmh 30.00 in1015.9 mb - 0.00 in0.0 mm 0.00 in0.0 mm
02:20 PM 59.5°F15.3°C 52.3°F11.3°C 77% 2.0 mph E3.2 kmh E 6.0 mph9.7 kmh 30.00 in1015.9 mb - 0.00 in0.0 mm 0.00 in0.0 mm
02:30 PM 59.5°F15.3°C 52.3°F11.3°C 77% 2.0 mph E3.2 kmh E 3.0 mph4.8 kmh 30.00 in1015.9 mb - 0.00 in0.0 mm 0.00 in0.0 mm
02:40 PM 59.3°F15.2°C 52.1°F11.2°C 77% 1.0 mph E1.6 kmh E 3.0 mph4.8 kmh 30.00 in1015.9 mb - 0.00 in0.0 mm 0.00 in0.0 mm
02:50 PM 59.2°F15.1°C 52.0°F11.1°C 77% Calm Calm 1.0 mph1.6 kmh 30.00 in1015.9 mb - 0.00 in0.0 mm 0.00 in0.0 mm
03:00 PM 59.1°F15.1°C 51.9°F11.1°C 77% 2.0 mph E3.2 kmh E 3.0 mph4.8 kmh 29.99 in1015.6 mb - 0.00 in0.0 mm 0.00 in0.0 mm
03:10 PM 59.1°F15.1°C 51.5°F10.8°C 76% 1.0 mph E1.6 kmh E 3.0 mph4.8 kmh 30.00 in1015.9 mb - 0.00 in0.0 mm 0.00 in0.0 mm
03:20 PM 58.5°F14.7°C 51.7°F10.9°C 78% Calm Calm -- 29.99 in1015.6 mb - 0.00 in0.0 mm 0.00 in0.0 mm
03:30 PM 57.9°F14.4°C 51.4°F10.8°C 79% 2.0 mph E3.2 kmh E 3.0 mph4.8 kmh 29.99 in1015.6 mb - 0.00 in0.0 mm 0.00 in0.0 mm
03:40 PM 57.7°F14.3°C 51.2°F10.7°C 79% Calm Calm 1.0 mph1.6 kmh 29.99 in1015.6 mb - 0.00 in0.0 mm 0.00 in0.0 mm
03:50 PM 57.3°F14.1°C 51.5°F10.8°C 81% 1.0 mph E1.6 kmh E 3.0 mph4.8 kmh 29.99 in1015.6 mb - 0.00 in0.0 mm 0.00 in0.0 mm
04:00 PM 57.5°F14.2°C 51.4°F10.8°C 80% 1.0 mph E1.6 kmh E 2.0 mph3.2 kmh 29.99 in1015.6 mb - 0.00 in0.0 mm 0.00 in0.0 mm
04:10 PM 57.5°F14.2°C 51.7°F10.9°C 81% 1.0 mph E1.6 kmh E 2.0 mph3.2 kmh 29.99 in1015.6 mb - 0.00 in0.0 mm 0.00 in0.0 mm
04:20 PM 57.4°F14.1°C 51.9°F11.1°C 82% 1.0 mph E1.6 kmh E 3.0 mph4.8 kmh 29.99 in1015.6 mb - 0.00 in0.0 mm 0.00 in0.0 mm
04:30 PM 57.1°F13.9°C 52.3°F11.3°C 84% 2.0 mph ESE3.2 kmh ESE 3.0 mph4.8 kmh 29.98 in1015.2 mb - 0.00 in0.0 mm 0.00 in0.0 mm
04:40 PM 56.7°F13.7°C 52.2°F11.2°C 85% 1.0 mph ESE1.6 kmh ESE 3.0 mph4.8 kmh 29.98 in1015.2 mb 0.00 in0.0 mm 0.00 in0.0 mm 0.00 in0.0 mm
04:50 PM 56.4°F13.6°C 52.3°F11.3°C 86% Calm Calm 1.0 mph1.6 kmh 29.99 in1015.6 mb 0.00 in0.0 mm 0.00 in0.0 mm 0.00 in0.0 mm
05:00 PM 56.2°F13.4°C 52.4°F11.3°C 87% Calm Calm -- 29.99 in1015.6 mb 0.00 in0.0 mm 0.00 in0.0 mm 0.00 in0.0 mm
05:10 PM 56.1°F13.4°C 52.3°F11.3°C 87% Calm Calm 2.0 mph3.2 kmh 29.99 in1015.6 mb 0.00 in0.0 mm 0.00 in0.0 mm 0.00 in0.0 mm
05:20 PM 55.9°F13.3°C 52.1°F11.2°C 87% Calm Calm 2.0 mph3.2 kmh 29.99 in1015.6 mb 0.00 in0.0 mm 0.00 in0.0 mm 0.00 in0.0 mm
05:30 PM 55.7°F13.2°C 51.9°F11.1°C 87% 1.0 mph ESE1.6 kmh ESE 2.0 mph3.2 kmh 29.99 in1015.6 mb 0.00 in0.0 mm 0.00 in0.0 mm 0.00 in0.0 mm
05:40 PM 55.6°F13.1°C 51.8°F11.0°C 87% 1.0 mph ESE1.6 kmh ESE 3.0 mph4.8 kmh 29.99 in1015.6 mb 0.00 in0.0 mm 0.00 in0.0 mm 0.00 in0.0 mm
05:50 PM 55.4°F13.0°C 51.6°F10.9°C 87% 1.0 mph ESE1.6 kmh ESE 3.0 mph4.8 kmh 29.99 in1015.6 mb 0.00 in0.0 mm 0.00 in0.0 mm 0.00 in0.0 mm
06:00 PM 55.4°F13.0°C 51.6°F10.9°C 87% 2.0 mph ESE3.2 kmh ESE 6.0 mph9.7 kmh 29.99 in1015.6 mb 0.00 in0.0 mm 0.00 in0.0 mm 0.00 in0.0 mm
06:10 PM 55.2°F12.9°C 51.4°F10.8°C 87% 2.0 mph ESE3.2 kmh ESE 3.0 mph4.8 kmh 29.99 in1015.6 mb 0.00 in0.0 mm 0.00 in0.0 mm 0.00 in0.0 mm
06:20 PM 55.0°F12.8°C 51.5°F10.8°C 88% 2.0 mph E3.2 kmh E 3.0 mph4.8 kmh 29.99 in1015.6 mb 0.00 in0.0 mm 0.00 in0.0 mm 0.00 in0.0 mm
06:30 PM 54.7°F12.6°C 51.5°F10.8°C 89% Calm Calm 2.0 mph3.2 kmh 29.99 in1015.6 mb 0.00 in0.0 mm 0.00 in0.0 mm 0.00 in0.0 mm
06:40 PM 54.4°F12.4°C 51.2°F10.7°C 89% 2.0 mph E3.2 kmh E 3.0 mph4.8 kmh 29.99 in1015.6 mb 0.00 in0.0 mm 0.00 in0.0 mm 0.00 in0.0 mm
06:50 PM 54.3°F12.4°C 51.4°F10.8°C 90% 1.0 mph E1.6 kmh E 3.0 mph4.8 kmh 30.00 in1015.9 mb 0.00 in0.0 mm 0.00 in0.0 mm 0.00 in0.0 mm
07:00 PM 54.1°F12.3°C 51.2°F10.7°C 90% Calm Calm 1.0 mph1.6 kmh 30.00 in1015.9 mb 0.00 in0.0 mm 0.00 in0.0 mm 0.00 in0.0 mm
07:10 PM 53.9°F12.2°C 51.3°F10.7°C 91% Calm Calm 1.0 mph1.6 kmh 30.00 in1015.9 mb 0.00 in0.0 mm 0.00 in0.0 mm 0.00 in0.0 mm
07:20 PM 53.7°F12.1°C 51.1°F10.6°C 91% Calm Calm 1.0 mph1.6 kmh 30.00 in1015.9 mb 0.00 in0.0 mm 0.00 in0.0 mm 0.00 in0.0 mm
07:30 PM 53.4°F11.9°C 51.2°F10.7°C 92% 1.0 mph E1.6 kmh E 2.0 mph3.2 kmh 30.00 in1015.9 mb 0.00 in0.0 mm 0.00 in0.0 mm 0.00 in0.0 mm
07:40 PM 53.3°F11.8°C 51.3°F10.7°C 93% 1.0 mph E1.6 kmh E 3.0 mph4.8 kmh 30.00 in1015.9 mb 0.00 in0.0 mm 0.00 in0.0 mm 0.00 in0.0 mm
07:50 PM 53.2°F11.8°C 51.5°F10.8°C 94% 1.0 mph E1.6 kmh E 1.0 mph1.6 kmh 30.00 in1015.9 mb 0.01 in0.3 mm 0.06 in1.5 mm 0.01 in0.3 mm
08:00 PM 53.0°F11.7°C 51.3°F10.7°C 94% 3.0 mph E4.8 kmh E 3.0 mph4.8 kmh 30.00 in1015.9 mb 0.00 in0.0 mm 0.00 in0.0 mm 0.01 in0.3 mm
08:10 PM 52.9°F11.6°C 51.2°F10.7°C 94% 1.0 mph E1.6 kmh E 3.0 mph4.8 kmh 29.99 in1015.6 mb 0.00 in0.0 mm 0.00 in0.0 mm 0.01 in0.3 mm
08:20 PM 52.8°F11.6°C 51.1°F10.6°C 94% Calm Calm -- 29.99 in1015.6 mb 0.00 in0.0 mm 0.00 in0.0 mm 0.01 in0.3 mm
08:30 PM 52.8°F11.6°C 51.1°F10.6°C 94% 1.0 mph E1.6 kmh E 6.0 mph9.7 kmh 29.99 in1015.6 mb 0.00 in0.0 mm 0.00 in0.0 mm 0.01 in0.3 mm
08:40 PM 52.9°F11.6°C 51.5°F10.8°C 95% 1.0 mph E1.6 kmh E 3.0 mph4.8 kmh 29.99 in1015.6 mb 0.00 in0.0 mm 0.00 in0.0 mm 0.01 in0.3 mm
08:50 PM 52.9°F11.6°C 51.5°F10.8°C 95% Calm Calm -- 29.99 in1015.6 mb 0.00 in0.0 mm 0.00 in0.0 mm 0.01 in0.3 mm
09:00 PM 52.9°F11.6°C 51.6°F10.9°C 95% Calm Calm 6.0 mph9.7 kmh 29.98 in1015.2 mb 0.00 in0.0 mm 0.00 in0.0 mm 0.01 in0.3 mm
09:10 PM 52.9°F11.6°C 51.5°F10.8°C 95% 1.0 mph E1.6 kmh E 6.0 mph9.7 kmh 29.98 in1015.2 mb 0.00 in0.0 mm 0.00 in0.0 mm 0.01 in0.3 mm
09:20 PM 52.8°F11.6°C 51.7°F10.9°C 96% 1.0 mph E1.6 kmh E 3.0 mph4.8 kmh 29.98 in1015.2 mb 0.00 in0.0 mm 0.00 in0.0 mm 0.01 in0.3 mm
09:30 PM 52.8°F11.6°C 51.7°F10.9°C 96% 1.0 mph ESE1.6 kmh ESE 7.0 mph11.3 kmh 29.98 in1015.2 mb 0.00 in0.0 mm 0.00 in0.0 mm 0.01 in0.3 mm
09:40 PM 52.7°F11.5°C 51.6°F10.9°C 96% 2.0 mph E3.2 kmh E 6.0 mph9.7 kmh 29.98 in1015.2 mb 0.00 in0.0 mm 0.00 in0.0 mm 0.01 in0.3 mm
09:50 PM 52.6°F11.4°C 51.5°F10.8°C 96% 2.0 mph E3.2 kmh E 6.0 mph9.7 kmh 29.98 in1015.2 mb 0.00 in0.0 mm 0.00 in0.0 mm 0.01 in0.3 mm
10:00 PM 52.5°F11.4°C 51.4°F10.8°C 96% 2.0 mph E3.2 kmh E 3.0 mph4.8 kmh 29.97 in1014.9 mb 0.00 in0.0 mm 0.00 in0.0 mm 0.01 in0.3 mm
10:10 PM 52.5°F11.4°C 51.4°F10.8°C 96% 1.0 mph E1.6 kmh E 3.0 mph4.8 kmh 29.97 in1014.9 mb 0.00 in0.0 mm 0.00 in0.0 mm 0.01 in0.3 mm
10:20 PM 52.5°F11.4°C 51.7°F10.9°C 97% 1.0 mph E1.6 kmh E 3.0 mph4.8 kmh 29.97 in1014.9 mb 0.00 in0.0 mm 0.00 in0.0 mm 0.01 in0.3 mm
10:30 PM 52.5°F11.4°C 51.7°F10.9°C 97% Calm Calm 1.0 mph1.6 kmh 29.97 in1014.9 mb 0.00 in0.0 mm 0.00 in0.0 mm 0.01 in0.3 mm
10:40 PM 52.5°F11.4°C 51.6°F10.9°C 97% 1.0 mph E1.6 kmh E 2.0 mph3.2 kmh 29.97 in1014.9 mb 0.00 in0.0 mm 0.00 in0.0 mm 0.01 in0.3 mm
10:50 PM 52.5°F11.4°C 51.7°F10.9°C 97% 1.0 mph E1.6 kmh E 3.0 mph4.8 kmh 29.97 in1014.9 mb 0.00 in0.0 mm 0.00 in0.0 mm 0.01 in0.3 mm
11:00 PM 52.4°F11.3°C 51.6°F10.9°C 97% Calm Calm 2.0 mph3.2 kmh 29.97 in1014.9 mb 0.00 in0.0 mm 0.00 in0.0 mm 0.01 in0.3 mm
11:10 PM 52.5°F11.4°C 51.7°F10.9°C 97% 1.0 mph E1.6 kmh E 1.0 mph1.6 kmh 29.97 in1014.9 mb 0.00 in0.0 mm 0.00 in0.0 mm 0.01 in0.3 mm
11:30 PM 51.6°F10.9°C 50.8°F10.4°C 97% Calm Calm -- 29.94 in1013.9 mb - 0.00 in0.0 mm 0.01 in0.3 mm